sensor_id;sensor_type;location;lat;lon;timestamp;noise_LAeq;noise_LA_min;noise_LA_max;noise_LA01;noise_LA95
49215;Laerm;45943;53.148;8.204;2024-02-04T00:00:49;48.77;38.97;64.55;;
49215;Laerm;45943;53.148;8.204;2024-02-04T00:03:15;50.04;39.68;68.36;;
49215;Laerm;45943;53.148;8.204;2024-02-04T00:05:41;42.51;39.41;51.34;;
49215;Laerm;45943;53.148;8.204;2024-02-04T00:08:07;42.18;37.92;59.95;;
49215;Laerm;45943;53.148;8.204;2024-02-04T00:10:33;48.35;38.65;66.49;;
49215;Laerm;45943;53.148;8.204;2024-02-04T00:13:00;41.77;39.12;45.93;;
49215;Laerm;45943;53.148;8.204;2024-02-04T00:15:26;42.27;39.41;48.55;;
49215;Laerm;45943;53.148;8.204;2024-02-04T00:17:52;48.06;39.55;63.56;;
49215;Laerm;45943;53.148;8.204;2024-02-04T00:20:18;62.57;39.12;74.30;;
49215;Laerm;45943;53.148;8.204;2024-02-04T00:22:44;42.34;39.55;49.30;;
49215;Laerm;45943;53.148;8.204;2024-02-04T00:25:10;41.83;37.92;51.30;;
49215;Laerm;45943;53.148;8.204;2024-02-04T00:27:37;41.22;38.12;50.96;;
49215;Laerm;45943;53.148;8.204;2024-02-04T00:30:04;49.43;38.30;68.97;;
49215;Laerm;45943;53.148;8.204;2024-02-04T00:32:30;47.07;38.30;64.51;;
49215;Laerm;45943;53.148;8.204;2024-02-04T00:34:56;41.61;38.48;44.95;;
49215;Laerm;45943;53.148;8.204;2024-02-04T00:37:22;41.35;38.30;44.49;;
49215;Laerm;45943;53.148;8.204;2024-02-04T00:39:48;41.15;37.72;46.51;;
49215;Laerm;45943;53.148;8.204;2024-02-04T00:42:14;41.48;38.48;48.19;;
49215;Laerm;45943;53.148;8.204;2024-02-04T00:44:40;41.59;38.81;45.11;;
49215;Laerm;45943;53.148;8.204;2024-02-04T00:47:06;43.98;38.12;56.82;;
49215;Laerm;45943;53.148;8.204;2024-02-04T00:49:32;41.49;38.81;43.74;;
49215;Laerm;45943;53.148;8.204;2024-02-04T00:51:58;41.53;38.65;45.87;;
49215;Laerm;45943;53.148;8.204;2024-02-04T00:54:24;41.68;38.48;47.60;;
49215;Laerm;45943;53.148;8.204;2024-02-04T00:56:50;41.05;38.12;43.79;;
49215;Laerm;45943;53.148;8.204;2024-02-04T00:59:16;41.30;38.12;45.77;;
49215;Laerm;45943;53.148;8.204;2024-02-04T01:01:42;45.00;38.97;59.56;;
49215;Laerm;45943;53.148;8.204;2024-02-04T01:04:08;47.48;38.47;63.07;;
49215;Laerm;45943;53.148;8.204;2024-02-04T01:06:34;48.13;37.72;67.00;;
49215;Laerm;45943;53.148;8.204;2024-02-04T01:09:00;49.86;38.48;66.27;;
49215;Laerm;45943;53.148;8.204;2024-02-04T01:11:26;41.46;38.30;45.71;;
49215;Laerm;45943;53.148;8.204;2024-02-04T01:13:53;42.06;38.48;57.98;;
49215;Laerm;45943;53.148;8.204;2024-02-04T01:16:19;48.57;38.81;67.39;;
49215;Laerm;45943;53.148;8.204;2024-02-04T01:18:45;46.47;38.48;61.80;;
49215;Laerm;45943;53.148;8.204;2024-02-04T01:21:11;47.04;38.97;64.31;;
49215;Laerm;45943;53.148;8.204;2024-02-04T01:23:37;41.93;37.72;47.60;;
49215;Laerm;45943;53.148;8.204;2024-02-04T01:26:03;46.98;38.48;64.51;;
49215;Laerm;45943;53.148;8.204;2024-02-04T01:28:30;41.85;37.29;48.00;;
49215;Laerm;45943;53.148;8.204;2024-02-04T01:30:56;41.20;38.30;44.04;;
49215;Laerm;45943;53.148;8.204;2024-02-04T01:33:22;42.01;38.65;45.33;;
49215;Laerm;45943;53.148;8.204;2024-02-04T01:35:48;42.10;38.62;46.46;;
49215;Laerm;45943;53.148;8.204;2024-02-04T01:38:14;48.28;39.12;64.84;;
49215;Laerm;45943;53.148;8.204;2024-02-04T01:40:40;40.84;37.92;43.42;;
49215;Laerm;45943;53.148;8.204;2024-02-04T01:43:06;40.88;38.48;44.28;;
49215;Laerm;45943;53.148;8.204;2024-02-04T01:45:32;41.36;37.51;44.83;;
49215;Laerm;45943;53.148;8.204;2024-02-04T01:47:58;47.53;38.48;67.49;;
49215;Laerm;45943;53.148;8.204;2024-02-04T01:50:24;46.77;37.51;64.47;;
49215;Laerm;45943;53.148;8.204;2024-02-04T01:52:51;40.40;37.51;44.46;;
49215;Laerm;45943;53.148;8.204;2024-02-04T01:55:17;41.14;37.72;48.08;;
49215;Laerm;45943;53.148;8.204;2024-02-04T01:57:44;40.95;37.92;43.79;;
49215;Laerm;45943;53.148;8.204;2024-02-04T02:00:10;46.35;37.72;63.35;;
49215;Laerm;45943;53.148;8.204;2024-02-04T02:02:39;40.59;37.29;43.48;;
49215;Laerm;45943;53.148;8.204;2024-02-04T02:05:06;48.09;37.72;63.76;;
49215;Laerm;45943;53.148;8.204;2024-02-04T02:07:33;49.38;38.48;56.04;;
49215;Laerm;45943;53.148;8.204;2024-02-04T02:09:59;46.84;37.05;53.72;;
49215;Laerm;45943;53.148;8.204;2024-02-04T02:12:27;41.25;38.30;45.14;;
49215;Laerm;45943;53.148;8.204;2024-02-04T02:15:17;41.63;37.92;68.28;;
49215;Laerm;45943;53.148;8.204;2024-02-04T02:17:51;49.82;38.97;68.01;;
49215;Laerm;45943;53.148;8.204;2024-02-04T02:20:30;41.39;38.30;44.75;;
49215;Laerm;45943;53.148;8.204;2024-02-04T02:23:22;41.03;37.72;44.09;;
49215;Laerm;45943;53.148;8.204;2024-02-04T02:25:49;41.42;37.51;45.33;;
49215;Laerm;45943;53.148;8.204;2024-02-04T02:28:15;41.66;37.29;52.58;;
49215;Laerm;45943;53.148;8.204;2024-02-04T02:30:41;41.34;38.12;44.14;;
49215;Laerm;45943;53.148;8.204;2024-02-04T02:33:07;47.39;37.72;64.81;;
49215;Laerm;45943;53.148;8.204;2024-02-04T02:35:35;46.57;37.51;63.50;;
49215;Laerm;45943;53.148;8.204;2024-02-04T02:38:23;40.83;37.51;44.04;;
49215;Laerm;45943;53.148;8.204;2024-02-04T02:40:54;46.87;38.12;64.81;;
49215;Laerm;45943;53.148;8.204;2024-02-04T02:43:24;40.87;36.80;45.32;;
49215;Laerm;45943;53.148;8.204;2024-02-04T02:45:51;40.66;37.05;45.07;;
49215;Laerm;45943;53.148;8.204;2024-02-04T02:48:18;40.68;37.51;44.32;;
49215;Laerm;45943;53.148;8.204;2024-02-04T02:50:44;49.08;36.26;66.39;;
49215;Laerm;45943;53.148;8.204;2024-02-04T02:53:10;44.84;37.95;65.13;;
49215;Laerm;45943;53.148;8.204;2024-02-04T02:55:36;41.34;37.92;44.99;;
49215;Laerm;45943;53.148;8.204;2024-02-04T02:58:02;40.63;37.51;43.07;;
49215;Laerm;45943;53.148;8.204;2024-02-04T03:00:28;46.63;37.92;63.12;;
49215;Laerm;45943;53.148;8.204;2024-02-04T03:02:54;41.51;37.92;46.80;;
49215;Laerm;45943;53.148;8.204;2024-02-04T03:05:21;47.81;37.29;64.58;;
49215;Laerm;45943;53.148;8.204;2024-02-04T03:07:47;40.81;37.05;43.58;;
49215;Laerm;45943;53.148;8.204;2024-02-04T03:10:13;40.27;35.29;44.18;;
49215;Laerm;45943;53.148;8.204;2024-02-04T03:12:39;41.44;37.72;45.74;;
49215;Laerm;45943;53.148;8.204;2024-02-04T03:15:05;40.72;37.29;43.13;;
49215;Laerm;45943;53.148;8.204;2024-02-04T03:17:31;41.51;37.92;44.87;;
49215;Laerm;45943;53.148;8.204;2024-02-04T03:19:57;41.17;37.72;44.18;;
49215;Laerm;45943;53.148;8.204;2024-02-04T03:22:23;41.25;37.51;45.57;;
49215;Laerm;45943;53.148;8.204;2024-02-04T03:24:49;41.60;36.80;45.74;;
49215;Laerm;45943;53.148;8.204;2024-02-04T03:27:19;40.54;36.80;43.45;;
49215;Laerm;45943;53.148;8.204;2024-02-04T03:29:45;41.32;37.05;45.96;;
49215;Laerm;45943;53.148;8.204;2024-02-04T03:32:11;41.96;37.72;47.10;;
49215;Laerm;45943;53.148;8.204;2024-02-04T03:34:37;41.97;38.62;48.94;;
49215;Laerm;45943;53.148;8.204;2024-02-04T03:37:03;41.77;37.51;48.04;;
49215;Laerm;45943;53.148;8.204;2024-02-04T03:39:29;41.00;37.05;44.46;;
49215;Laerm;45943;53.148;8.204;2024-02-04T03:41:55;41.53;37.92;45.90;;
49215;Laerm;45943;53.148;8.204;2024-02-04T03:44:21;41.65;37.58;49.71;;
49215;Laerm;45943;53.148;8.204;2024-02-04T03:46:48;43.40;38.12;57.69;;
49215;Laerm;45943;53.148;8.204;2024-02-04T03:49:14;42.13;38.30;45.46;;
49215;Laerm;45943;53.148;8.204;2024-02-04T03:51:40;41.81;37.92;48.53;;
49215;Laerm;45943;53.148;8.204;2024-02-04T03:54:06;41.62;37.92;47.05;;
49215;Laerm;45943;53.148;8.204;2024-02-04T03:56:32;42.00;38.12;47.78;;
49215;Laerm;45943;53.148;8.204;2024-02-04T03:58:58;42.58;37.72;46.75;;
49215;Laerm;45943;53.148;8.204;2024-02-04T04:01:24;42.14;37.92;47.44;;
49215;Laerm;45943;53.148;8.204;2024-02-04T04:03:50;42.04;38.81;44.54;;
49215;Laerm;45943;53.148;8.204;2024-02-04T04:06:16;42.74;39.27;51.63;;
49215;Laerm;45943;53.148;8.204;2024-02-04T04:08:42;41.80;37.77;48.86;;
49215;Laerm;45943;53.148;8.204;2024-02-04T04:11:09;41.59;37.95;45.33;;
49215;Laerm;45943;53.148;8.204;2024-02-04T04:13:36;42.02;38.48;45.99;;
49215;Laerm;45943;53.148;8.204;2024-02-04T04:16:03;41.94;38.81;44.50;;
49215;Laerm;45943;53.148;8.204;2024-02-04T04:18:29;41.58;37.92;44.37;;
49215;Laerm;45943;53.148;8.204;2024-02-04T04:20:56;47.72;37.51;63.72;;
49215;Laerm;45943;53.148;8.204;2024-02-04T04:23:22;41.71;38.30;45.07;;
49215;Laerm;45943;53.148;8.204;2024-02-04T04:25:48;47.72;38.65;65.36;;
49215;Laerm;45943;53.148;8.204;2024-02-04T04:28:14;41.71;37.72;47.74;;
49215;Laerm;45943;53.148;8.204;2024-02-04T04:30:40;41.03;37.29;44.04;;
49215;Laerm;45943;53.148;8.204;2024-02-04T04:33:06;41.70;37.58;46.93;;
49215;Laerm;45943;53.148;8.204;2024-02-04T04:35:32;42.14;38.97;48.51;;
49215;Laerm;45943;53.148;8.204;2024-02-04T04:37:58;46.91;38.48;61.10;;
49215;Laerm;45943;53.148;8.204;2024-02-04T04:40:24;41.75;38.65;45.33;;
49215;Laerm;45943;53.148;8.204;2024-02-04T04:42:50;42.49;38.81;45.36;;
49215;Laerm;45943;53.148;8.204;2024-02-04T04:45:16;42.18;39.27;45.18;;
49215;Laerm;45943;53.148;8.204;2024-02-04T04:47:42;41.47;38.47;44.99;;
49215;Laerm;45943;53.148;8.204;2024-02-04T04:50:08;48.01;39.12;66.15;;
49215;Laerm;45943;53.148;8.204;2024-02-04T04:52:34;41.68;38.65;45.07;;
49215;Laerm;45943;53.148;8.204;2024-02-04T04:55:00;46.20;38.48;62.61;;
49215;Laerm;45943;53.148;8.204;2024-02-04T04:57:26;41.80;37.51;48.10;;
49215;Laerm;45943;53.148;8.204;2024-02-04T04:59:52;41.84;38.65;49.59;;
49215;Laerm;45943;53.148;8.204;2024-02-04T05:02:18;61.86;40.83;74.26;;
49215;Laerm;45943;53.148;8.204;2024-02-04T05:04:44;51.73;38.65;71.31;;
49215;Laerm;45943;53.148;8.204;2024-02-04T05:07:11;41.42;38.48;43.64;;
49215;Laerm;45943;53.148;8.204;2024-02-04T05:09:37;43.26;38.30;58.47;;
49215;Laerm;45943;53.148;8.204;2024-02-04T05:12:03;42.84;38.81;55.48;;
49215;Laerm;45943;53.148;8.204;2024-02-04T05:14:29;43.82;39.81;56.27;;
49215;Laerm;45943;53.148;8.204;2024-02-04T05:16:55;43.11;39.12;57.89;;
49215;Laerm;45943;53.148;8.204;2024-02-04T05:19:21;47.25;38.48;62.83;;
49215;Laerm;45943;53.148;8.204;2024-02-04T05:21:47;44.12;38.48;57.38;;
49215;Laerm;45943;53.148;8.204;2024-02-04T05:24:13;43.71;37.92;56.90;;
49215;Laerm;45943;53.148;8.204;2024-02-04T05:26:39;43.76;38.81;62.44;;
49215;Laerm;45943;53.148;8.204;2024-02-04T05:29:05;47.04;39.12;63.13;;
49215;Laerm;45943;53.148;8.204;2024-02-04T05:31:31;43.72;38.12;57.35;;
49215;Laerm;45943;53.148;8.204;2024-02-04T05:33:57;44.28;39.27;60.27;;
49215;Laerm;45943;53.148;8.204;2024-02-04T05:36:23;43.45;38.30;56.25;;
49215;Laerm;45943;53.148;8.204;2024-02-04T05:38:49;48.43;38.48;65.47;;
49215;Laerm;45943;53.148;8.204;2024-02-04T05:41:15;43.22;38.92;56.70;;
49215;Laerm;45943;53.148;8.204;2024-02-04T05:43:41;43.51;38.81;54.51;;
49215;Laerm;45943;53.148;8.204;2024-02-04T05:46:07;45.87;40.63;55.41;;
49215;Laerm;45943;53.148;8.204;2024-02-04T05:48:33;44.43;40.06;55.24;;
49215;Laerm;45943;53.148;8.204;2024-02-04T05:51:00;47.40;39.55;64.14;;
49215;Laerm;45943;53.148;8.204;2024-02-04T05:53:26;44.74;39.41;58.38;;
49215;Laerm;45943;53.148;8.204;2024-02-04T05:55:52;51.69;39.20;70.65;;
49215;Laerm;45943;53.148;8.204;2024-02-04T05:58:18;43.02;39.27;55.26;;
49215;Laerm;45943;53.148;8.204;2024-02-04T06:00:44;43.28;38.81;54.16;;
49215;Laerm;45943;53.148;8.204;2024-02-04T06:03:10;43.02;39.12;52.55;;
49215;Laerm;45943;53.148;8.204;2024-02-04T06:05:36;43.26;38.81;54.46;;
49215;Laerm;45943;53.148;8.204;2024-02-04T06:08:02;43.26;39.41;56.63;;
49215;Laerm;45943;53.148;8.204;2024-02-04T06:10:28;42.83;39.27;56.22;;
49215;Laerm;45943;53.148;8.204;2024-02-04T06:12:54;44.47;39.34;54.56;;
49215;Laerm;45943;53.148;8.204;2024-02-04T06:15:20;48.10;39.94;64.36;;
49215;Laerm;45943;53.148;8.204;2024-02-04T06:17:47;43.81;38.81;59.69;;
49215;Laerm;45943;53.148;8.204;2024-02-04T06:20:13;46.81;40.30;61.28;;
49215;Laerm;45943;53.148;8.204;2024-02-04T06:22:39;58.47;45.43;71.50;;
49215;Laerm;45943;53.148;8.204;2024-02-04T06:25:05;49.11;44.41;64.97;;
49215;Laerm;45943;53.148;8.204;2024-02-04T06:27:31;49.76;39.41;64.62;;
49215;Laerm;45943;53.148;8.204;2024-02-04T06:29:57;48.18;40.06;65.99;;
49215;Laerm;45943;53.148;8.204;2024-02-04T06:32:23;42.34;38.48;47.80;;
49215;Laerm;45943;53.148;8.204;2024-02-04T06:34:50;46.30;39.41;65.75;;
49215;Laerm;45943;53.148;8.204;2024-02-04T06:37:17;50.62;41.22;67.11;;
49215;Laerm;45943;53.148;8.204;2024-02-04T06:39:43;51.90;40.06;66.93;;
49215;Laerm;45943;53.148;8.204;2024-02-04T06:42:09;44.68;40.06;56.47;;
49215;Laerm;45943;53.148;8.204;2024-02-04T06:44:35;48.60;40.18;65.40;;
49215;Laerm;45943;53.148;8.204;2024-02-04T06:47:01;43.69;39.12;58.11;;
49215;Laerm;45943;53.148;8.204;2024-02-04T06:49:27;42.99;39.94;52.48;;
49215;Laerm;45943;53.148;8.204;2024-02-04T06:51:53;43.25;40.18;53.42;;
49215;Laerm;45943;53.148;8.204;2024-02-04T06:54:25;49.54;41.13;64.21;;
49215;Laerm;45943;53.148;8.204;2024-02-04T06:56:51;43.68;39.81;54.87;;
49215;Laerm;45943;53.148;8.204;2024-02-04T06:59:18;44.22;40.78;63.93;;
49215;Laerm;45943;53.148;8.204;2024-02-04T07:01:44;45.29;40.52;59.08;;
49215;Laerm;45943;53.148;8.204;2024-02-04T07:04:10;45.64;39.68;61.33;;
49215;Laerm;45943;53.148;8.204;2024-02-04T07:06:36;43.14;39.81;52.16;;
49215;Laerm;45943;53.148;8.204;2024-02-04T07:09:02;48.92;41.66;67.81;;
49215;Laerm;45943;53.148;8.204;2024-02-04T07:11:28;49.47;41.58;67.45;;
49215;Laerm;45943;53.148;8.204;2024-02-04T07:13:54;49.72;40.73;65.80;;
49215;Laerm;45943;53.148;8.204;2024-02-04T07:16:25;44.31;40.93;58.89;;
49215;Laerm;45943;53.148;8.204;2024-02-04T07:18:51;53.14;41.82;67.69;;
49215;Laerm;45943;53.148;8.204;2024-02-04T07:21:17;44.29;41.03;56.12;;
49215;Laerm;45943;53.148;8.204;2024-02-04T07:23:43;46.43;39.81;59.89;;
49215;Laerm;45943;53.148;8.204;2024-02-04T07:26:09;49.89;39.68;63.66;;
49215;Laerm;45943;53.148;8.204;2024-02-04T07:28:36;48.27;40.93;65.54;;
49215;Laerm;45943;53.148;8.204;2024-02-04T07:31:02;43.08;40.93;50.87;;
49215;Laerm;45943;53.148;8.204;2024-02-04T07:33:28;48.98;40.41;67.70;;
49215;Laerm;45943;53.148;8.204;2024-02-04T07:35:54;42.80;40.06;52.97;;
49215;Laerm;45943;53.148;8.204;2024-02-04T07:38:20;43.37;41.40;55.15;;
49215;Laerm;45943;53.148;8.204;2024-02-04T07:40:46;51.34;41.13;66.01;;
49215;Laerm;45943;53.148;8.204;2024-02-04T07:43:12;48.24;41.13;62.66;;
49215;Laerm;45943;53.148;8.204;2024-02-04T07:45:39;47.76;41.03;64.58;;
49215;Laerm;45943;53.148;8.204;2024-02-04T07:48:05;45.15;40.30;56.49;;
49215;Laerm;45943;53.148;8.204;2024-02-04T07:50:31;48.62;41.90;63.75;;
49215;Laerm;45943;53.148;8.204;2024-02-04T07:52:57;43.64;40.73;54.49;;
49215;Laerm;45943;53.148;8.204;2024-02-04T07:55:23;45.67;41.22;61.39;;
49215;Laerm;45943;53.148;8.204;2024-02-04T07:57:49;44.29;41.22;56.27;;
49215;Laerm;45943;53.148;8.204;2024-02-04T08:00:15;43.62;39.81;55.29;;
49215;Laerm;45943;53.148;8.204;2024-02-04T08:02:44;44.10;41.31;55.36;;
49215;Laerm;45943;53.148;8.204;2024-02-04T08:05:10;48.78;41.90;65.16;;
49215;Laerm;45943;53.148;8.204;2024-02-04T08:07:36;48.70;41.90;61.91;;
49215;Laerm;45943;53.148;8.204;2024-02-04T08:10:02;44.28;41.90;52.16;;
49215;Laerm;45943;53.148;8.204;2024-02-04T08:12:28;46.52;41.74;59.43;;
49215;Laerm;45943;53.148;8.204;2024-02-04T08:14:54;49.63;41.98;67.67;;
49215;Laerm;45943;53.148;8.204;2024-02-04T08:17:20;48.25;41.74;64.36;;
49215;Laerm;45943;53.148;8.204;2024-02-04T08:19:46;50.29;42.28;63.69;;
49215;Laerm;45943;53.148;8.204;2024-02-04T08:22:12;52.35;43.25;67.74;;
49215;Laerm;45943;53.148;8.204;2024-02-04T08:24:38;51.05;42.42;64.11;;
49215;Laerm;45943;53.148;8.204;2024-02-04T08:27:05;46.89;41.66;61.26;;
49215;Laerm;45943;53.148;8.204;2024-02-04T08:29:31;48.22;42.06;66.37;;
49215;Laerm;45943;53.148;8.204;2024-02-04T08:31:57;50.88;42.42;66.01;;
49215;Laerm;45943;53.148;8.204;2024-02-04T08:34:23;51.16;41.98;66.59;;
49215;Laerm;45943;53.148;8.204;2024-02-04T08:36:52;44.98;42.56;53.95;;
49215;Laerm;45943;53.148;8.204;2024-02-04T08:39:18;49.76;42.49;66.11;;
49215;Laerm;45943;53.148;8.204;2024-02-04T08:41:44;52.58;43.19;66.54;;
49215;Laerm;45943;53.148;8.204;2024-02-04T08:44:10;50.52;42.95;65.43;;
49215;Laerm;45943;53.148;8.204;2024-02-04T08:46:36;47.91;42.49;64.96;;
49215;Laerm;45943;53.148;8.204;2024-02-04T08:49:02;45.70;42.42;63.63;;
49215;Laerm;45943;53.148;8.204;2024-02-04T08:51:28;49.17;43.01;62.72;;
49215;Laerm;45943;53.148;8.204;2024-02-04T08:53:54;58.82;43.19;87.07;;
49215;Laerm;45943;53.148;8.204;2024-02-04T08:56:20;51.74;43.58;67.06;;
49215;Laerm;45943;53.148;8.204;2024-02-04T08:58:46;51.86;43.79;67.71;;
49215;Laerm;45943;53.148;8.204;2024-02-04T09:01:12;49.80;43.58;71.04;;
49215;Laerm;45943;53.148;8.204;2024-02-04T09:03:38;47.44;41.93;61.92;;
49215;Laerm;45943;53.148;8.204;2024-02-04T09:06:05;45.73;42.21;60.17;;
49215;Laerm;45943;53.148;8.204;2024-02-04T09:08:31;46.48;42.56;60.04;;
49215;Laerm;45943;53.148;8.204;2024-02-04T09:10:57;50.39;42.13;64.22;;
49215;Laerm;45943;53.148;8.204;2024-02-04T09:13:23;53.75;41.86;71.89;;
49215;Laerm;45943;53.148;8.204;2024-02-04T09:15:50;52.73;42.21;72.71;;
49215;Laerm;45943;53.148;8.204;2024-02-04T09:18:16;50.61;42.89;64.59;;
49215;Laerm;45943;53.148;8.204;2024-02-04T09:20:42;57.91;43.58;68.16;;
49215;Laerm;45943;53.148;8.204;2024-02-04T09:23:08;53.27;44.28;63.87;;
49215;Laerm;45943;53.148;8.204;2024-02-04T09:25:34;50.79;43.94;67.17;;
49215;Laerm;45943;53.148;8.204;2024-02-04T09:28:00;49.18;44.14;67.08;;
49215;Laerm;45943;53.148;8.204;2024-02-04T09:30:26;50.90;43.42;65.41;;
49215;Laerm;45943;53.148;8.204;2024-02-04T09:32:52;51.84;43.01;69.07;;
49215;Laerm;45943;53.148;8.204;2024-02-04T09:35:18;48.06;42.79;62.78;;
49215;Laerm;45943;53.148;8.204;2024-02-04T09:37:44;48.51;42.82;62.79;;
49215;Laerm;45943;53.148;8.204;2024-02-04T09:40:11;50.28;42.82;63.37;;
49215;Laerm;45943;53.148;8.204;2024-02-04T09:42:38;51.63;42.82;65.10;;
49215;Laerm;45943;53.148;8.204;2024-02-04T09:45:04;50.63;43.13;64.07;;
49215;Laerm;45943;53.148;8.204;2024-02-04T09:47:32;49.23;42.48;61.29;;
49215;Laerm;45943;53.148;8.204;2024-02-04T09:50:00;49.76;42.54;64.29;;
49215;Laerm;45943;53.148;8.204;2024-02-04T09:52:29;51.38;43.53;63.02;;
49215;Laerm;45943;53.148;8.204;2024-02-04T09:55:00;54.62;42.89;64.58;;
49215;Laerm;45943;53.148;8.204;2024-02-04T09:57:29;53.19;41.66;69.16;;
49215;Laerm;45943;53.148;8.204;2024-02-04T09:59:56;53.38;43.07;69.64;;
49215;Laerm;45943;53.148;8.204;2024-02-04T10:02:23;47.78;42.56;67.22;;
49215;Laerm;45943;53.148;8.204;2024-02-04T10:04:50;55.49;43.13;68.85;;
49215;Laerm;45943;53.148;8.204;2024-02-04T10:07:16;54.47;43.01;70.97;;
49215;Laerm;45943;53.148;8.204;2024-02-04T10:09:44;51.31;43.13;67.86;;
49215;Laerm;45943;53.148;8.204;2024-02-04T10:12:10;45.05;42.95;54.87;;
49215;Laerm;45943;53.148;8.204;2024-02-04T10:14:36;51.03;43.45;65.19;;
49215;Laerm;45943;53.148;8.204;2024-02-04T10:17:03;48.98;42.89;71.14;;
49215;Laerm;45943;53.148;8.204;2024-02-04T10:19:30;46.48;42.76;56.69;;
49215;Laerm;45943;53.148;8.204;2024-02-04T10:22:03;53.91;42.56;67.53;;
49215;Laerm;45943;53.148;8.204;2024-02-04T10:24:30;50.76;42.42;56.38;;
49215;Laerm;45943;53.148;8.204;2024-02-04T10:26:56;56.10;43.13;68.24;;
49215;Laerm;45943;53.148;8.204;2024-02-04T10:29:25;52.25;42.49;69.21;;
49215;Laerm;45943;53.148;8.204;2024-02-04T10:31:55;47.90;43.42;68.40;;
49215;Laerm;45943;53.148;8.204;2024-02-04T10:34:22;49.68;44.95;65.04;;
49215;Laerm;45943;53.148;8.204;2024-02-04T10:36:48;49.43;44.71;62.34;;
49215;Laerm;45943;53.148;8.204;2024-02-04T10:39:14;53.11;43.58;66.19;;
49215;Laerm;45943;53.148;8.204;2024-02-04T10:41:49;51.55;42.95;68.95;;
49215;Laerm;45943;53.148;8.204;2024-02-04T10:44:17;55.23;43.31;72.23;;
49215;Laerm;45943;53.148;8.204;2024-02-04T10:46:46;51.30;44.04;65.96;;
49215;Laerm;45943;53.148;8.204;2024-02-04T10:49:14;48.00;43.53;60.76;;
49215;Laerm;45943;53.148;8.204;2024-02-04T10:51:45;53.18;43.19;75.06;;
49215;Laerm;45943;53.148;8.204;2024-02-04T10:54:14;51.88;43.48;74.75;;
49215;Laerm;45943;53.148;8.204;2024-02-04T10:56:45;53.40;43.07;81.97;;
49215;Laerm;45943;53.148;8.204;2024-02-04T10:59:15;60.38;43.19;91.17;;
49215;Laerm;45943;53.148;8.204;2024-02-04T11:01:45;54.67;42.82;83.67;;
49215;Laerm;45943;53.148;8.204;2024-02-04T11:04:14;58.42;43.34;77.64;;
49215;Laerm;45943;53.148;8.204;2024-02-04T11:06:42;46.90;43.19;61.94;;
49215;Laerm;45943;53.148;8.204;2024-02-04T11:09:11;48.11;43.53;59.34;;
49215;Laerm;45943;53.148;8.204;2024-02-04T11:11:38;49.27;43.64;63.72;;
49215;Laerm;45943;53.148;8.204;2024-02-04T11:14:09;50.06;42.42;64.69;;
49215;Laerm;45943;53.148;8.204;2024-02-04T11:20:00;51.10;42.76;64.91;;
49215;Laerm;45943;53.148;8.204;2024-02-04T11:22:16;51.08;43.42;68.15;;
49215;Laerm;45943;53.148;8.204;2024-02-04T11:24:52;52.78;43.55;67.99;;
49215;Laerm;45943;53.148;8.204;2024-02-04T11:27:21;51.16;44.09;64.38;;
49215;Laerm;45943;53.148;8.204;2024-02-04T11:29:48;56.72;44.14;75.99;;
49215;Laerm;45943;53.148;8.204;2024-02-04T11:32:14;49.11;43.48;63.55;;
49215;Laerm;45943;53.148;8.204;2024-02-04T11:34:40;52.16;43.07;66.11;;
49215;Laerm;45943;53.148;8.204;2024-02-04T11:37:19;50.30;43.01;66.13;;
49215;Laerm;45943;53.148;8.204;2024-02-04T11:39:53;61.54;42.95;80.26;;
49215;Laerm;45943;53.148;8.204;2024-02-04T11:42:19;54.40;44.04;67.50;;
49215;Laerm;45943;53.148;8.204;2024-02-04T11:44:48;54.80;43.84;66.78;;
49215;Laerm;45943;53.148;8.204;2024-02-04T11:47:24;53.44;43.58;68.75;;
49215;Laerm;45943;53.148;8.204;2024-02-04T11:49:54;53.61;44.63;67.30;;
49215;Laerm;45943;53.148;8.204;2024-02-04T11:52:21;54.28;43.36;72.82;;
49215;Laerm;45943;53.148;8.204;2024-02-04T11:54:47;49.69;43.53;63.55;;
49215;Laerm;45943;53.148;8.204;2024-02-04T11:57:14;55.27;43.74;67.80;;
49215;Laerm;45943;53.148;8.204;2024-02-04T11:59:42;49.44;43.48;64.58;;
49215;Laerm;45943;53.148;8.204;2024-02-04T12:02:09;46.05;43.01;57.97;;
49215;Laerm;45943;53.148;8.204;2024-02-04T12:04:35;51.98;42.56;67.30;;
49215;Laerm;45943;53.148;8.204;2024-02-04T12:07:02;50.55;42.63;63.93;;
49215;Laerm;45943;53.148;8.204;2024-02-04T12:09:28;52.26;43.19;65.81;;
49215;Laerm;45943;53.148;8.204;2024-02-04T12:11:54;49.04;42.96;67.11;;
49215;Laerm;45943;53.148;8.204;2024-02-04T12:14:21;51.04;43.36;64.99;;
49215;Laerm;45943;53.148;8.204;2024-02-04T12:16:47;47.74;42.63;63.87;;
49215;Laerm;45943;53.148;8.204;2024-02-04T12:19:13;52.66;43.31;67.73;;
49215;Laerm;45943;53.148;8.204;2024-02-04T12:21:39;53.78;43.25;69.98;;
49215;Laerm;45943;53.148;8.204;2024-02-04T12:24:05;51.08;42.69;66.10;;
49215;Laerm;45943;53.148;8.204;2024-02-04T12:26:31;49.20;42.76;63.65;;
49215;Laerm;45943;53.148;8.204;2024-02-04T12:28:58;53.71;43.36;65.96;;
49215;Laerm;45943;53.148;8.204;2024-02-04T12:31:25;53.23;43.42;71.66;;
49215;Laerm;45943;53.148;8.204;2024-02-04T12:33:59;52.36;42.28;64.88;;
49215;Laerm;45943;53.148;8.204;2024-02-04T12:36:27;52.56;43.53;65.47;;
49215;Laerm;45943;53.148;8.204;2024-02-04T12:38:55;52.81;43.19;66.71;;
49215;Laerm;45943;53.148;8.204;2024-02-04T12:41:25;51.00;43.13;65.29;;
49215;Laerm;45943;53.148;8.204;2024-02-04T12:43:52;50.09;43.07;64.71;;
49215;Laerm;45943;53.148;8.204;2024-02-04T12:46:19;47.02;42.63;62.12;;
49215;Laerm;45943;53.148;8.204;2024-02-04T12:48:50;50.99;42.42;63.58;;
49215;Laerm;45943;53.148;8.204;2024-02-04T12:51:30;51.43;43.07;67.55;;
49215;Laerm;45943;53.148;8.204;2024-02-04T12:59:09;50.02;43.07;64.35;;
49215;Laerm;45943;53.148;8.204;2024-02-04T13:01:37;62.71;43.19;81.07;;
49215;Laerm;45943;53.148;8.204;2024-02-04T13:04:04;49.57;42.21;64.29;;
49215;Laerm;45943;53.148;8.204;2024-02-04T13:06:30;50.61;42.21;66.50;;
49215;Laerm;45943;53.148;8.204;2024-02-04T13:08:57;49.91;42.56;62.45;;
49215;Laerm;45943;53.148;8.204;2024-02-04T13:11:26;51.37;43.42;66.59;;
49215;Laerm;45943;53.148;8.204;2024-02-04T13:13:52;46.70;42.82;56.74;;
49215;Laerm;45943;53.148;8.204;2024-02-04T13:16:19;47.85;42.89;65.79;;
49215;Laerm;45943;53.148;8.204;2024-02-04T13:18:52;53.72;43.42;67.55;;
49215;Laerm;45943;53.148;8.204;2024-02-04T13:21:19;52.64;43.53;65.54;;
49215;Laerm;45943;53.148;8.204;2024-02-04T13:23:50;55.16;45.71;68.39;;
49215;Laerm;45943;53.148;8.204;2024-02-04T13:26:16;53.18;44.09;65.64;;
49215;Laerm;45943;53.148;8.204;2024-02-04T13:28:43;48.98;43.19;64.11;;
49215;Laerm;45943;53.148;8.204;2024-02-04T13:31:09;57.39;43.94;70.59;;
49215;Laerm;45943;53.148;8.204;2024-02-04T13:33:37;50.46;43.01;65.25;;
49215;Laerm;45943;53.148;8.204;2024-02-04T13:36:03;48.84;42.89;65.30;;
49215;Laerm;45943;53.148;8.204;2024-02-04T13:38:29;54.21;43.48;69.51;;
49215;Laerm;45943;53.148;8.204;2024-02-04T13:40:55;49.89;43.25;64.01;;
49215;Laerm;45943;53.148;8.204;2024-02-04T13:43:21;51.97;44.14;65.66;;
49215;Laerm;45943;53.148;8.204;2024-02-04T13:45:47;53.10;43.42;68.47;;
49215;Laerm;45943;53.148;8.204;2024-02-04T13:48:13;51.49;43.53;65.67;;
49215;Laerm;45943;53.148;8.204;2024-02-04T13:50:39;51.86;43.42;65.47;;